createdAt,value
2017-12-29T00:00:07.686Z,4.00
2017-12-29T00:02:35.137Z,4.00
2017-12-29T00:05:02.732Z,4.00
2017-12-29T00:07:30.379Z,4.00
2017-12-29T00:09:57.976Z,3.90
2017-12-29T00:12:25.389Z,3.90
2017-12-29T00:14:52.924Z,3.80
2017-12-29T00:17:20.379Z,3.80
2017-12-29T00:19:47.874Z,3.80
2017-12-29T00:22:15.343Z,3.80
2017-12-29T00:24:42.862Z,3.80
2017-12-29T00:27:11.101Z,3.80
2017-12-29T00:29:38.567Z,3.80
2017-12-29T00:32:06.831Z,3.90
2017-12-29T00:34:34.339Z,3.80
2017-12-29T00:37:01.836Z,3.80
2017-12-29T00:39:29.331Z,3.80
2017-12-29T00:41:56.819Z,3.80
2017-12-29T00:44:25.056Z,3.80
2017-12-29T00:46:52.514Z,3.80
2017-12-29T00:49:20.040Z,3.80
2017-12-29T00:51:48.307Z,3.90
2017-12-29T00:54:15.795Z,3.80
2017-12-29T00:56:43.303Z,3.80
2017-12-29T00:59:10.785Z,3.90
2017-12-29T01:01:38.275Z,3.90
2017-12-29T01:04:06.504Z,3.70
2017-12-29T01:06:33.965Z,3.70
2017-12-29T01:09:01.541Z,3.90
2017-12-29T01:11:29.776Z,3.80
2017-12-29T01:13:57.202Z,3.80
2017-12-29T01:16:24.677Z,3.80
2017-12-29T01:18:52.929Z,3.70
2017-12-29T01:21:20.366Z,3.70
2017-12-29T01:23:47.854Z,3.80
2017-12-29T01:26:15.326Z,3.80
2017-12-29T01:28:44.460Z,3.80
2017-12-29T01:31:12.955Z,3.80
2017-12-29T01:33:40.430Z,3.80
2017-12-29T01:36:07.877Z,3.70
2017-12-29T01:38:35.365Z,3.70
2017-12-29T01:41:02.981Z,3.70
2017-12-29T01:43:31.192Z,3.70
2017-12-29T01:45:58.664Z,3.70
2017-12-29T01:48:26.178Z,3.80
2017-12-29T01:50:53.674Z,3.80
2017-12-29T01:53:21.145Z,3.80
2017-12-29T01:55:48.603Z,3.70
2017-12-29T01:58:16.095Z,3.70
2017-12-29T02:00:43.547Z,3.70
2017-12-29T02:03:11.049Z,3.70
2017-12-29T02:05:38.516Z,3.70
2017-12-29T02:08:05.998Z,3.70
2017-12-29T02:10:33.487Z,3.80
2017-12-29T02:13:00.965Z,3.70
2017-12-29T02:15:28.413Z,3.70
2017-12-29T02:17:55.866Z,3.70
2017-12-29T02:20:23.419Z,3.60
2017-12-29T02:22:50.864Z,3.50
2017-12-29T02:25:19.116Z,3.50
2017-12-29T02:27:46.601Z,3.50
2017-12-29T02:30:14.543Z,3.40
2017-12-29T02:32:42.722Z,3.50
2017-12-29T02:35:10.368Z,3.50
2017-12-29T02:37:37.834Z,3.60
2017-12-29T02:40:05.287Z,3.50
2017-12-29T02:42:32.779Z,3.50
2017-12-29T02:45:00.257Z,3.40
2017-12-29T02:47:27.695Z,3.40
2017-12-29T02:49:55.178Z,3.40
2017-12-29T02:52:22.673Z,3.50
2017-12-29T02:54:50.946Z,3.40
2017-12-29T02:57:18.361Z,3.40
2017-12-29T02:59:45.884Z,3.40
2017-12-29T03:02:13.361Z,3.40
2017-12-29T03:04:40.866Z,3.50
2017-12-29T03:07:08.363Z,3.40
2017-12-29T03:09:36.597Z,3.30
2017-12-29T03:12:04.058Z,3.30
2017-12-29T03:14:31.513Z,3.30
2017-12-29T03:16:59.003Z,3.40
2017-12-29T03:19:26.460Z,3.40
2017-12-29T03:21:53.983Z,3.30
2017-12-29T03:24:21.447Z,3.20
2017-12-29T03:26:48.909Z,3.20
2017-12-29T03:29:16.402Z,3.20
2017-12-29T03:31:43.867Z,3.20
2017-12-29T03:34:11.330Z,3.10
2017-12-29T03:36:38.831Z,3.10
2017-12-29T03:39:06.298Z,3.10
2017-12-29T03:41:34.570Z,3.10
2017-12-29T03:44:02.830Z,3.10
2017-12-29T03:46:30.314Z,3.10
2017-12-29T03:48:58.536Z,3.10
2017-12-29T03:51:26.030Z,3.10
2017-12-29T03:53:53.473Z,3.20
2017-12-29T03:56:20.962Z,3.30
2017-12-29T03:58:48.446Z,3.30
2017-12-29T04:01:16.696Z,3.30
2017-12-29T04:03:44.222Z,3.20
2017-12-29T04:06:12.431Z,3.20
2017-12-29T04:08:39.917Z,3.20
2017-12-29T04:11:07.405Z,3.30
2017-12-29T04:13:34.846Z,3.40
2017-12-29T04:16:03.106Z,3.40
2017-12-29T04:18:30.616Z,3.40
2017-12-29T04:20:58.093Z,3.50
2017-12-29T04:23:25.560Z,3.50
2017-12-29T04:25:53.817Z,3.50
2017-12-29T04:28:22.061Z,3.50
2017-12-29T04:30:49.522Z,3.40
2017-12-29T04:33:17.005Z,3.40
2017-12-29T04:35:45.215Z,3.20
2017-12-29T04:38:12.746Z,3.20
2017-12-29T04:40:40.193Z,3.10
2017-12-29T04:43:07.786Z,3.20
2017-12-29T04:45:36.018Z,3.30
2017-12-29T04:48:03.512Z,3.30
2017-12-29T04:50:31.775Z,3.30
2017-12-29T04:52:59.294Z,3.30
2017-12-29T04:55:26.761Z,3.20
2017-12-29T04:57:54.258Z,3.10
2017-12-29T05:00:21.743Z,3.00
2017-12-29T05:02:49.985Z,3.00
2017-12-29T05:05:17.525Z,3.00
2017-12-29T05:07:44.971Z,3.00
2017-12-29T05:10:12.426Z,3.10
2017-12-29T05:12:39.928Z,3.10
2017-12-29T05:15:07.415Z,3.00
2017-12-29T05:17:34.859Z,3.00
2017-12-29T05:20:02.323Z,3.00
2017-12-29T05:22:29.786Z,3.00
2017-12-29T05:24:57.265Z,2.90
2017-12-29T05:27:25.640Z,3.10
2017-12-29T05:29:53.093Z,3.00
2017-12-29T05:32:20.539Z,3.00
2017-12-29T05:34:47.972Z,3.00
2017-12-29T05:37:15.449Z,3.00
2017-12-29T05:39:42.949Z,2.90
2017-12-29T05:42:10.661Z,2.90
2017-12-29T05:44:38.932Z,3.10
2017-12-29T05:47:07.164Z,3.10
2017-12-29T05:49:34.610Z,3.10
2017-12-29T05:52:02.086Z,3.10
2017-12-29T05:54:29.594Z,3.00
2017-12-29T05:56:57.819Z,3.00
2017-12-29T05:59:25.312Z,2.90
2017-12-29T06:01:52.786Z,3.00
2017-12-29T06:04:20.307Z,3.00
2017-12-29T06:06:47.769Z,3.00
2017-12-29T06:09:15.267Z,3.10
2017-12-29T06:11:43.552Z,3.10
2017-12-29T06:14:10.979Z,3.10
2017-12-29T06:16:38.456Z,3.20
2017-12-29T06:19:05.926Z,3.00
2017-12-29T06:21:33.396Z,3.00
2017-12-29T06:24:00.917Z,3.00
2017-12-29T06:26:28.383Z,2.90
2017-12-29T06:28:55.852Z,2.90
2017-12-29T06:31:23.339Z,2.90
2017-12-29T06:33:50.793Z,2.90
2017-12-29T06:36:18.415Z,3.00
2017-12-29T06:38:45.912Z,2.90
2017-12-29T06:41:13.392Z,2.90
2017-12-29T06:43:40.878Z,2.80
2017-12-29T06:46:08.340Z,2.80
2017-12-29T06:48:35.818Z,2.70
2017-12-29T06:51:04.071Z,2.90
2017-12-29T06:53:31.587Z,2.80
2017-12-29T06:55:59.037Z,2.90
2017-12-29T06:58:26.536Z,2.80
2017-12-29T07:00:54.009Z,2.90
2017-12-29T07:03:21.441Z,2.90
2017-12-29T07:05:48.921Z,2.90
2017-12-29T07:08:16.347Z,2.90
2017-12-29T07:10:43.851Z,2.90
2017-12-29T07:13:11.361Z,2.80
2017-12-29T07:15:39.642Z,2.90
2017-12-29T07:18:07.147Z,2.90
2017-12-29T07:20:34.590Z,2.90
2017-12-29T07:23:02.079Z,2.80
2017-12-29T07:25:30.312Z,2.70
2017-12-29T07:27:57.789Z,2.70
2017-12-29T07:30:25.262Z,2.80
2017-12-29T07:32:52.747Z,2.90
2017-12-29T07:35:20.208Z,2.90
2017-12-29T07:37:47.674Z,2.80
2017-12-29T07:40:15.166Z,2.90
2017-12-29T07:42:42.613Z,2.90
2017-12-29T07:45:10.130Z,3.00
2017-12-29T07:47:37.677Z,2.90
2017-12-29T07:50:05.169Z,2.90
2017-12-29T07:52:32.639Z,2.90
2017-12-29T07:55:00.107Z,2.90
2017-12-29T07:57:27.573Z,3.00
2017-12-29T07:59:55.076Z,3.10
2017-12-29T08:02:23.326Z,3.10
2017-12-29T08:04:50.801Z,3.10
2017-12-29T08:07:18.295Z,3.10
2017-12-29T08:09:45.742Z,3.10
2017-12-29T08:12:14.037Z,3.30
2017-12-29T08:14:42.273Z,3.40
2017-12-29T08:17:09.751Z,3.40
2017-12-29T08:19:38.290Z,3.50
2017-12-29T08:22:05.740Z,3.40
2017-12-29T08:24:33.298Z,3.60
2017-12-29T08:27:01.552Z,3.60
2017-12-29T08:29:29.034Z,3.60
2017-12-29T08:31:57.274Z,3.70
2017-12-29T08:34:24.797Z,3.70
2017-12-29T08:36:53.055Z,3.80
2017-12-29T08:39:20.488Z,3.80
2017-12-29T08:41:47.999Z,3.80
2017-12-29T08:44:15.529Z,3.90
2017-12-29T08:46:42.996Z,3.80
2017-12-29T08:49:11.310Z,4.10
2017-12-29T08:51:38.736Z,4.10
2017-12-29T08:54:07.697Z,4.20
2017-12-29T08:56:35.197Z,4.20
2017-12-29T08:59:02.709Z,4.10
2017-12-29T09:01:30.131Z,4.00
2017-12-29T09:03:58.368Z,4.20
2017-12-29T09:06:25.881Z,4.10
2017-12-29T09:08:53.365Z,4.20
2017-12-29T09:11:20.778Z,4.00
2017-12-29T09:13:48.247Z,4.10
2017-12-29T09:16:15.690Z,4.10
2017-12-29T09:18:43.194Z,4.30
2017-12-29T09:21:10.702Z,4.30
2017-12-29T09:23:38.174Z,4.30
2017-12-29T09:26:05.604Z,4.40
2017-12-29T09:28:33.103Z,4.40
2017-12-29T09:31:00.609Z,4.40
2017-12-29T09:33:28.883Z,4.30
2017-12-29T09:35:56.333Z,4.20
2017-12-29T09:38:24.627Z,4.30
2017-12-29T09:40:52.854Z,4.30
2017-12-29T09:43:20.324Z,4.30
2017-12-29T09:45:47.823Z,4.20
2017-12-29T09:48:16.142Z,4.30
2017-12-29T09:50:43.611Z,4.30
2017-12-29T09:53:11.085Z,4.50
2017-12-29T09:55:38.678Z,4.50
2017-12-29T09:58:06.152Z,4.50
2017-12-29T10:00:33.622Z,4.50
2017-12-29T10:03:01.199Z,4.50
2017-12-29T10:05:28.758Z,4.60
2017-12-29T10:07:56.266Z,4.60
2017-12-29T10:10:23.909Z,4.70
2017-12-29T10:12:51.437Z,4.60
2017-12-29T10:15:18.883Z,4.60
2017-12-29T10:17:46.408Z,4.50
2017-12-29T10:20:14.618Z,4.60
2017-12-29T10:22:42.100Z,4.60
2017-12-29T10:25:09.574Z,4.70
2017-12-29T10:27:37.064Z,4.60
2017-12-29T10:30:05.306Z,4.80
2017-12-29T10:32:32.811Z,4.80
2017-12-29T10:35:00.310Z,4.70
2017-12-29T10:37:27.937Z,4.70
2017-12-29T10:39:56.202Z,4.80
2017-12-29T10:42:23.641Z,4.80
2017-12-29T10:44:51.150Z,4.70
2017-12-29T10:47:18.656Z,4.60
2017-12-29T10:49:46.095Z,4.60
2017-12-29T10:52:13.617Z,4.70
2017-12-29T10:54:41.893Z,4.60
2017-12-29T10:57:10.102Z,4.70
2017-12-29T10:59:37.561Z,4.70
2017-12-29T11:02:05.067Z,4.80
2017-12-29T11:04:32.534Z,4.80
2017-12-29T11:07:00.496Z,4.90
2017-12-29T11:09:27.980Z,4.90
2017-12-29T11:11:55.392Z,5.00
2017-12-29T11:14:22.971Z,5.00
2017-12-29T11:16:51.154Z,4.90
2017-12-29T11:19:18.681Z,4.90
2017-12-29T11:21:46.157Z,5.00
2017-12-29T11:24:13.648Z,5.00
2017-12-29T11:26:41.127Z,5.10
2017-12-29T11:29:08.595Z,5.10
2017-12-29T11:31:36.076Z,5.00
2017-12-29T11:34:04.347Z,5.00
2017-12-29T11:36:31.822Z,5.00
2017-12-29T11:39:00.067Z,5.00
2017-12-29T11:41:27.577Z,4.90
2017-12-29T11:43:55.802Z,5.00
2017-12-29T11:46:23.234Z,4.90
2017-12-29T11:48:50.723Z,5.00
2017-12-29T11:51:18.210Z,5.10
2017-12-29T11:53:45.666Z,5.00
2017-12-29T11:56:13.196Z,5.00
2017-12-29T11:58:40.690Z,5.00
2017-12-29T12:01:08.146Z,5.10
2017-12-29T12:03:35.673Z,5.00
2017-12-29T12:06:03.166Z,5.00
2017-12-29T12:08:30.623Z,5.00
2017-12-29T12:10:58.129Z,5.00
2017-12-29T12:13:26.431Z,5.00
2017-12-29T12:15:53.959Z,5.00
2017-12-29T12:18:22.201Z,5.00
2017-12-29T12:20:49.675Z,5.00
2017-12-29T12:23:17.166Z,5.10
2017-12-29T12:25:44.616Z,5.10
2017-12-29T12:28:12.135Z,5.10
2017-12-29T12:30:39.628Z,5.00
2017-12-29T12:33:07.073Z,5.10
2017-12-29T12:35:34.577Z,5.10
2017-12-29T12:38:02.120Z,5.10
2017-12-29T12:40:29.611Z,5.10
2017-12-29T12:42:57.138Z,5.10
2017-12-29T12:45:24.613Z,5.00
2017-12-29T12:47:52.076Z,5.10
2017-12-29T12:50:19.562Z,5.00
2017-12-29T12:52:47.036Z,5.00
2017-12-29T12:55:14.560Z,5.00
2017-12-29T12:57:42.074Z,5.00
2017-12-29T13:00:09.775Z,5.00
2017-12-29T13:02:37.272Z,4.90
2017-12-29T13:05:04.784Z,4.90
2017-12-29T13:07:33.021Z,5.10
2017-12-29T13:10:02.037Z,5.00
2017-12-29T13:12:29.458Z,5.00
2017-12-29T13:14:56.972Z,5.10
2017-12-29T13:17:24.444Z,5.00
2017-12-29T13:19:51.899Z,5.00
2017-12-29T13:22:20.147Z,5.10
2017-12-29T13:24:47.639Z,5.00
2017-12-29T13:27:15.106Z,5.00
2017-12-29T13:29:42.579Z,5.00
2017-12-29T13:32:10.092Z,5.00
2017-12-29T13:34:37.593Z,4.90
2017-12-29T13:37:05.864Z,5.00
2017-12-29T13:39:33.368Z,5.00
2017-12-29T13:42:00.812Z,5.00
2017-12-29T13:44:28.304Z,4.90
2017-12-29T13:46:55.787Z,4.90
2017-12-29T13:49:23.289Z,5.00
2017-12-29T13:51:50.791Z,5.00
2017-12-29T13:54:18.271Z,4.90
2017-12-29T13:56:45.741Z,4.90
2017-12-29T13:59:13.291Z,4.80
2017-12-29T14:01:40.785Z,4.80
2017-12-29T14:04:08.271Z,4.90
2017-12-29T14:06:35.826Z,4.90
2017-12-29T14:09:04.118Z,4.90
2017-12-29T14:11:32.319Z,4.90
2017-12-29T14:13:59.761Z,4.80
2017-12-29T14:16:27.307Z,4.90
2017-12-29T14:18:55.538Z,4.80
2017-12-29T14:21:23.068Z,4.80
2017-12-29T14:23:50.573Z,4.80
2017-12-29T14:26:18.751Z,4.90
2017-12-29T14:28:46.169Z,4.80
2017-12-29T14:31:13.693Z,4.80
2017-12-29T14:33:41.187Z,4.80
2017-12-29T14:36:08.665Z,5.00
2017-12-29T14:38:37.039Z,5.00
2017-12-29T14:41:04.529Z,5.00
2017-12-29T14:43:32.010Z,5.00
2017-12-29T14:45:59.486Z,5.00
2017-12-29T14:48:26.999Z,5.00
2017-12-29T14:50:54.533Z,4.90
2017-12-29T14:53:21.974Z,5.00
2017-12-29T14:55:49.465Z,5.10
2017-12-29T14:58:16.987Z,5.10
2017-12-29T15:00:45.203Z,5.10
2017-12-29T15:03:13.509Z,5.10
2017-12-29T15:05:41.167Z,5.10
2017-12-29T15:08:09.386Z,4.90
2017-12-29T15:10:36.847Z,4.90
2017-12-29T15:13:04.583Z,5.00
2017-12-29T15:15:32.328Z,5.00
2017-12-29T15:18:00.730Z,4.90
2017-12-29T15:20:28.819Z,4.80
2017-12-29T15:22:56.704Z,4.70
2017-12-29T15:25:24.419Z,4.70
2017-12-29T15:27:52.276Z,4.60
2017-12-29T15:30:20.186Z,4.50
2017-12-29T15:32:48.593Z,4.50
2017-12-29T15:35:16.674Z,4.50
2017-12-29T15:37:44.317Z,4.60
2017-12-29T15:40:13.584Z,4.40
2017-12-29T15:42:42.045Z,4.30
2017-12-29T15:45:09.715Z,4.20
2017-12-29T15:47:37.947Z,4.30
2017-12-29T15:50:06.363Z,4.30
2017-12-29T15:52:33.965Z,4.20
2017-12-29T15:55:01.424Z,4.10
2017-12-29T15:57:28.979Z,4.10
2017-12-29T15:59:56.422Z,4.20
2017-12-29T16:02:24.051Z,4.20
2017-12-29T16:04:51.552Z,4.30
2017-12-29T16:07:19.069Z,4.40
2017-12-29T16:09:47.344Z,4.00
2017-12-29T16:12:15.231Z,4.00
2017-12-29T16:14:42.856Z,4.10
2017-12-29T16:17:10.382Z,4.20
2017-12-29T16:19:37.866Z,4.30
2017-12-29T16:22:05.346Z,4.10
2017-12-29T16:24:32.844Z,4.00
2017-12-29T16:27:00.335Z,4.00
2017-12-29T16:29:27.854Z,4.10
2017-12-29T16:31:55.359Z,4.10
2017-12-29T16:34:22.848Z,4.00
2017-12-29T16:36:50.317Z,4.10
2017-12-29T16:39:17.820Z,4.20
2017-12-29T16:41:46.066Z,4.30
2017-12-29T16:44:13.552Z,4.30
2017-12-29T16:46:41.836Z,4.10
2017-12-29T16:49:09.318Z,4.10
2017-12-29T16:51:36.780Z,4.20
2017-12-29T16:54:04.337Z,4.10
2017-12-29T16:56:31.811Z,4.20
2017-12-29T16:58:59.415Z,4.10
2017-12-29T17:01:26.879Z,4.20
2017-12-29T17:03:54.482Z,4.20
2017-12-29T17:06:21.922Z,4.20
2017-12-29T17:08:49.426Z,4.30
2017-12-29T17:11:17.656Z,4.40
2017-12-29T17:13:45.130Z,4.40
2017-12-29T17:16:12.648Z,4.30
2017-12-29T17:18:40.109Z,4.20
2017-12-29T17:21:08.395Z,4.30
2017-12-29T17:23:35.866Z,4.30
2017-12-29T17:26:03.420Z,4.30
2017-12-29T17:28:31.427Z,4.40
2017-12-29T17:30:59.653Z,4.20
2017-12-29T17:33:27.124Z,4.20
2017-12-29T17:35:54.641Z,4.20
2017-12-29T17:38:22.135Z,4.30
2017-12-29T17:40:49.617Z,4.20
2017-12-29T17:43:17.079Z,4.20
2017-12-29T17:45:45.455Z,4.10
2017-12-29T17:48:12.906Z,4.20
2017-12-29T17:50:40.420Z,4.20
2017-12-29T17:53:07.967Z,4.30
2017-12-29T17:55:35.453Z,4.40
2017-12-29T17:58:02.895Z,4.50
2017-12-29T18:00:30.416Z,4.50
2017-12-29T18:02:57.932Z,4.40
2017-12-29T18:05:25.430Z,4.40
2017-12-29T18:07:52.959Z,4.40
2017-12-29T18:10:20.462Z,4.40
2017-12-29T18:12:48.724Z,4.50
2017-12-29T18:15:16.292Z,4.50
2017-12-29T18:17:43.817Z,4.50
2017-12-29T18:20:11.338Z,4.50
2017-12-29T18:22:38.833Z,4.60
2017-12-29T18:25:06.303Z,4.60
2017-12-29T18:27:33.852Z,4.60
2017-12-29T18:30:01.415Z,4.50
2017-12-29T18:32:28.898Z,4.40
2017-12-29T18:34:56.392Z,4.40
2017-12-29T18:37:23.922Z,4.40
2017-12-29T18:39:51.740Z,4.40
2017-12-29T18:42:19.255Z,4.50
2017-12-29T18:44:46.767Z,4.50
2017-12-29T18:47:14.384Z,4.40
2017-12-29T18:49:42.680Z,4.40
2017-12-29T18:52:10.343Z,4.40
2017-12-29T18:54:37.917Z,4.30
2017-12-29T18:57:06.169Z,4.30
2017-12-29T18:59:33.760Z,4.30
2017-12-29T19:02:01.470Z,4.40
2017-12-29T19:04:28.963Z,4.30
2017-12-29T19:06:56.672Z,4.30
2017-12-29T19:09:24.167Z,4.30
2017-12-29T19:11:52.546Z,4.20
2017-12-29T19:14:20.006Z,4.20
2017-12-29T19:16:47.752Z,4.20
2017-12-29T19:19:16.236Z,4.20
2017-12-29T19:21:43.880Z,4.20
2017-12-29T19:24:11.488Z,4.20
2017-12-29T19:26:39.115Z,4.20
2017-12-29T19:29:06.913Z,4.10
2017-12-29T19:31:34.571Z,4.10
2017-12-29T19:34:02.147Z,4.10
2017-12-29T19:36:30.801Z,4.00
2017-12-29T19:38:59.134Z,4.10
2017-12-29T19:41:26.643Z,4.20
2017-12-29T19:43:54.206Z,4.10
2017-12-29T19:46:21.690Z,4.20
2017-12-29T19:48:49.220Z,4.20
2017-12-29T19:51:17.064Z,4.20
2017-12-29T19:53:44.589Z,4.30
2017-12-29T19:56:12.151Z,4.20
2017-12-29T19:58:39.684Z,4.30
2017-12-29T20:01:08.969Z,4.30
2017-12-29T20:03:37.417Z,4.30
2017-12-29T20:06:04.961Z,4.30
2017-12-29T20:08:33.139Z,4.30
2017-12-29T20:11:00.683Z,4.30
2017-12-29T20:13:28.088Z,4.30
2017-12-29T20:15:55.601Z,4.40
2017-12-29T20:18:23.161Z,4.30
2017-12-29T20:20:50.697Z,4.30
2017-12-29T20:23:18.232Z,4.30
2017-12-29T20:25:45.668Z,4.30
2017-12-29T20:28:13.125Z,4.30
2017-12-29T20:30:40.643Z,4.40
2017-12-29T20:33:08.106Z,4.40
2017-12-29T20:35:35.572Z,4.40
2017-12-29T20:38:03.075Z,4.40
2017-12-29T20:40:30.536Z,4.50
2017-12-29T20:42:58.013Z,4.40
2017-12-29T20:45:25.639Z,4.40
2017-12-29T20:47:53.462Z,4.50
2017-12-29T20:50:20.926Z,4.50
2017-12-29T20:52:48.451Z,4.50
2017-12-29T20:55:15.914Z,4.50
2017-12-29T20:57:43.440Z,4.50
2017-12-29T21:00:10.933Z,4.40
2017-12-29T21:02:38.452Z,4.50
2017-12-29T21:05:05.931Z,4.40
2017-12-29T21:07:34.202Z,4.40
2017-12-29T21:10:01.663Z,4.40
2017-12-29T21:12:29.112Z,4.40
2017-12-29T21:14:56.604Z,4.40
2017-12-29T21:17:24.126Z,4.40
2017-12-29T21:19:51.877Z,4.40
2017-12-29T21:22:19.432Z,4.40
2017-12-29T21:24:46.889Z,4.40
2017-12-29T21:27:15.183Z,4.50
2017-12-29T21:29:42.711Z,4.50
2017-12-29T21:32:10.176Z,4.50
2017-12-29T21:34:38.446Z,4.60
2017-12-29T21:37:05.972Z,4.60
2017-12-29T21:39:33.523Z,4.60
2017-12-29T21:42:01.018Z,4.60
2017-12-29T21:44:28.767Z,4.60
2017-12-29T21:46:57.016Z,4.70
2017-12-29T21:49:24.454Z,4.70
2017-12-29T21:51:51.949Z,4.70
2017-12-29T21:54:20.244Z,4.70
2017-12-29T21:56:47.662Z,4.70
2017-12-29T21:59:15.155Z,4.80
2017-12-29T22:01:42.692Z,4.70
2017-12-29T22:04:10.122Z,4.70
2017-12-29T22:06:37.672Z,4.70
2017-12-29T22:09:05.914Z,4.80
2017-12-29T22:11:33.442Z,4.70
2017-12-29T22:14:00.982Z,4.70
2017-12-29T22:16:28.826Z,4.70
2017-12-29T22:18:56.237Z,4.80
2017-12-29T22:21:23.717Z,4.80
2017-12-29T22:23:51.202Z,4.90
2017-12-29T22:26:18.682Z,4.90
2017-12-29T22:28:46.929Z,4.90
2017-12-29T22:31:15.145Z,4.90
2017-12-29T22:33:42.750Z,4.90
2017-12-29T22:36:10.168Z,5.00
2017-12-29T22:38:38.367Z,5.00
2017-12-29T22:41:05.936Z,5.00
2017-12-29T22:43:33.378Z,5.00
2017-12-29T22:46:00.939Z,5.00
2017-12-29T22:48:29.113Z,5.10
2017-12-29T22:50:56.570Z,5.10
2017-12-29T22:53:24.087Z,5.20
2017-12-29T22:55:51.580Z,5.30
2017-12-29T22:58:19.804Z,5.20
2017-12-29T23:00:47.438Z,5.20
2017-12-29T23:03:15.708Z,5.20
2017-12-29T23:05:43.204Z,5.20
2017-12-29T23:08:10.719Z,5.20
2017-12-29T23:10:38.212Z,5.20
2017-12-29T23:13:05.687Z,5.30
2017-12-29T23:15:33.185Z,5.30
2017-12-29T23:18:00.662Z,5.40
2017-12-29T23:20:29.664Z,5.40
2017-12-29T23:22:57.932Z,5.40
2017-12-29T23:25:25.378Z,5.40
2017-12-29T23:27:52.897Z,5.40
2017-12-29T23:30:21.142Z,5.40
2017-12-29T23:32:48.610Z,5.40
2017-12-29T23:35:16.078Z,5.40
2017-12-29T23:37:44.340Z,5.50
2017-12-29T23:40:11.806Z,5.40
2017-12-29T23:42:39.285Z,5.50
2017-12-29T23:45:07.578Z,5.50
2017-12-29T23:47:35.830Z,5.50
2017-12-29T23:50:03.346Z,5.50
2017-12-29T23:52:30.894Z,5.50
2017-12-29T23:54:58.402Z,5.60
2017-12-29T23:57:25.857Z,5.50
2017-12-29T23:59:53.348Z,5.60
